Weather at Dinan - Trélivan Airport

Public forecast

Using degrees Celsius for public forecast. Weather courtesy of forecast.io.

Closest aviation weather report (METAR) to Dinan - Trélivan Airport

Closest report is Dinard-Pleurtuit-Saint-Malo Airport, 8.6 nm (16.0 km) N. Retrieved 2021/09/23 01:30 UTC (18 minutes ago):

LFRD 230130Z AUTO 36002KT 4300 BR BKN004 BKN008 10/10 Q1024 TEMPO 0500 FG VV///

Closest aviation forecast (TAF) to Dinan - Trélivan Airport

Closest forecast is Dinard-Pleurtuit-Saint-Malo Airport, 8.6 nm (16.0 km) N. Retrieved 2021-09-23 00:21 UTC (1 hour ago):

TAF LFRD 222300Z 2300/2324 VRB03KT 6000 NSC BECMG 2300/2302 3000 BR PROB40 TEMPO 2302/2308 0500 FG VV/// BECMG 2308/2310 34008KT 9999 NSW TEMPO 2318/2324 BKN005 BECMG 2318/2320 VRB03KT